Time;durP1;ratioP1;P1;durP2;ratioP2;P2;SDS_P1;SDS_P2;PMS_P1;PMS_P2;Temp;Humidity;BMP_temperature;BMP_pressure;BME280_temperature;BME280_humidity;BME280_pressure;Samples;Min_cycle;Max_cycle;Signal;HPM_P1;HPM_P2
2022/07/25 00:01:45;;;;;;;14.90;10.77;;;;;;;31.80;43.96;101027.63;4911943;29;20103;-80
2022/07/25 00:04:13;;;;;;;15.32;11.70;;;;;;;31.63;44.44;101039.66;4910595;29;20280;-80
2022/07/25 00:06:41;;;;;;;14.60;10.55;;;;;;;31.62;44.22;101038.00;4910911;29;20064;-81
2022/07/25 00:09:09;;;;;;;17.13;9.68;;;;;;;30.90;45.01;100942.63;4926595;29;20582;-81
2022/07/25 00:11:35;;;;;;;13.52;9.77;;;;;;;31.33;45.37;101039.44;4926342;29;20520;-81
2022/07/25 00:14:03;;;;;;;10.93;9.85;;;;;;;31.17;45.44;101025.63;4911703;29;20176;-80
2022/07/25 00:16:31;;;;;;;12.35;11.20;;;;;;;31.05;45.95;101016.78;4926358;29;20481;-81
2022/07/25 00:18:58;;;;;;;11.82;10.65;;;;;;;31.08;46.28;101038.19;4925880;29;20413;-81
2022/07/25 00:21:25;;;;;;;10.63;9.52;;;;;;;30.83;46.65;101008.66;4910301;29;20056;-80
2022/07/25 00:23:52;;;;;;;17.60;10.00;;;;;;;30.79;46.54;101002.00;4911721;29;20452;-81
2022/07/25 00:26:18;;;;;;;19.55;10.77;;;;;;;30.72;46.93;101001.41;4926153;29;20052;-81
2022/07/25 00:28:45;;;;;;;17.60;10.32;;;;;;;30.31;47.16;100951.72;4919313;29;20114;-80
2022/07/25 00:31:12;;;;;;;12.85;10.55;;;;;;;30.74;47.45;101024.72;4930878;29;20051;-80
2022/07/25 00:33:39;;;;;;;16.50;10.75;;;;;;;30.72;47.48;101024.16;4945445;29;20079;-80
2022/07/25 00:36:09;;;;;;;16.42;11.23;;;;;;;30.77;47.62;101032.41;4928890;29;20071;-81
2022/07/25 00:38:36;;;;;;;15.63;10.70;;;;;;;30.71;48.15;101033.47;4929506;29;20488;-81
2022/07/25 00:41:03;;;;;;;17.70;10.82;;;;;;;30.41;47.92;101009.34;4944795;29;20315;-81
2022/07/25 00:43:30;;;;;;;14.82;9.65;;;;;;;30.39;48.79;101031.53;4930121;29;20048;-81
2022/07/25 00:45:57;;;;;;;13.10;9.20;;;;;;;30.36;48.67;101040.25;4944739;29;20492;-81
2022/07/25 00:48:26;;;;;;;16.70;10.20;;;;;;;30.33;48.80;101037.19;4944684;29;20055;-80
2022/07/25 00:50:55;;;;;;;15.50;10.88;;;;;;;30.25;49.45;101041.22;4929879;29;20095;-82
2022/07/25 00:53:21;;;;;;;14.30;10.65;;;;;;;30.24;49.11;101039.53;4929304;29;20048;-81
2022/07/25 00:55:48;;;;;;;13.63;11.13;;;;;;;30.26;49.39;101036.56;4945613;29;20059;-80
2022/07/25 00:58:15;;;;;;;15.07;10.50;;;;;;;30.12;49.04;101006.81;4944712;29;20058;-81
2022/07/25 01:00:42;;;;;;;15.90;11.05;;;;;;;30.36;48.89;101028.47;4929944;29;20056;-81
2022/07/25 01:03:09;;;;;;;14.20;10.13;;;;;;;29.75;49.00;100930.06;4943829;29;20071;-80
2022/07/25 01:05:36;;;;;;;11.75;10.27;;;;;;;30.10;49.43;101013.63;4944439;29;20082;-81
2022/07/25 01:08:03;;;;;;;16.10;10.25;;;;;;;30.23;49.38;101024.19;4929872;29;20063;-80
2022/07/25 01:10:31;;;;;;;15.13;9.95;;;;;;;30.27;48.96;101006.22;4929910;29;20209;-81
2022/07/25 01:12:58;;;;;;;15.30;11.52;;;;;;;30.33;49.14;101015.28;4944838;29;20059;-80
2022/07/25 01:15:25;;;;;;;16.33;10.35;;;;;;;30.21;49.46;101018.16;4944081;29;20061;-80
2022/07/25 01:17:52;;;;;;;13.77;11.68;;;;;;;30.08;49.37;101002.13;4944345;29;20119;-79
2022/07/25 01:20:20;;;;;;;15.43;11.43;;;;;;;30.18;49.19;101029.63;4944444;29;20099;-79
2022/07/25 01:22:47;;;;;;;13.77;9.95;;;;;;;30.15;49.65;101028.22;4927926;29;20436;-80
2022/07/25 01:25:15;;;;;;;12.93;10.50;;;;;;;30.20;49.31;101022.81;4944121;29;20044;-80
2022/07/25 01:27:42;;;;;;;17.15;11.80;;;;;;;30.22;49.36;101025.25;4929568;29;20496;-80
2022/07/25 01:30:11;;;;;;;19.23;11.55;;;;;;;30.22;49.30;101022.53;4932108;29;20508;-81
2022/07/25 01:32:37;;;;;;;18.05;11.20;;;;;;;30.17;49.31;101011.53;4929785;29;20044;-81
2022/07/25 01:35:05;;;;;;;16.05;10.25;;;;;;;30.31;48.64;101029.22;4928339;29;20048;-80
2022/07/25 01:37:32;;;;;;;12.70;11.40;;;;;;;30.29;48.98;101025.09;4943985;29;20311;-81
2022/07/25 01:40:00;;;;;;;20.65;11.50;;;;;;;30.23;48.85;101021.47;4931815;29;20055;-81
2022/07/25 01:42:27;;;;;;;11.75;10.38;;;;;;;30.29;48.67;101019.63;4930056;29;20067;-80
2022/07/25 01:44:54;;;;;;;15.70;11.70;;;;;;;30.27;48.63;101019.91;4928684;29;20056;-78
2022/07/25 01:47:21;;;;;;;14.05;11.63;;;;;;;29.23;48.27;100854.75;4929246;29;20097;-81
2022/07/25 01:49:48;;;;;;;17.02;10.95;;;;;;;30.39;47.91;101008.75;4943741;29;20515;-80
2022/07/25 01:52:15;;;;;;;13.90;10.75;;;;;;;30.41;47.92;101018.38;4943878;29;20051;-80
2022/07/25 01:54:41;;;;;;;14.93;10.88;;;;;;;30.28;48.16;101012.50;4927710;29;20284;-81
2022/07/25 01:57:09;;;;;;;16.63;12.77;;;;;;;30.17;48.20;100997.81;4943780;29;20058;-80
2022/07/25 01:59:39;;;;;;;13.43;10.60;;;;;;;30.15;47.85;101000.84;4943569;29;20055;-80
2022/07/25 02:02:07;;;;;;;14.80;11.60;;;;;;;29.91;47.82;100942.81;4942821;29;20150;-80
2022/07/25 02:04:34;;;;;;;13.32;11.70;;;;;;;29.53;48.07;100897.22;4927281;29;20110;-79
2022/07/25 02:07:01;;;;;;;11.60;9.60;;;;;;;30.01;47.79;100970.31;4944123;29;20051;-80
2022/07/25 02:09:28;;;;;;;15.70;11.35;;;;;;;30.28;47.98;101002.38;4944180;29;20051;-81
2022/07/25 02:11:55;;;;;;;14.80;10.65;;;;;;;30.08;47.83;100969.28;4943682;29;20079;-80
2022/07/25 02:14:22;;;;;;;11.82;10.27;;;;;;;30.37;47.99;101006.31;4943858;29;20102;-80
2022/07/25 02:16:49;;;;;;;13.20;10.73;;;;;;;30.30;47.92;101000.22;4928223;29;20480;-80
2022/07/25 02:19:15;;;;;;;12.82;10.65;;;;;;;30.05;48.12;100976.06;4943711;29;20139;-80
2022/07/25 02:21:42;;;;;;;17.75;12.60;;;;;;;30.15;47.79;100997.28;4943940;29;20059;-79
2022/07/25 02:24:09;;;;;;;12.10;10.80;;;;;;;29.98;47.75;100970.00;4929424;29;20590;-80
2022/07/25 02:26:36;;;;;;;13.00;9.98;;;;;;;29.86;47.99;100964.66;4943684;29;20603;-81
2022/07/25 02:29:03;;;;;;;13.43;12.02;;;;;;;30.14;47.52;101006.56;4938328;29;20048;-80
2022/07/25 02:31:30;;;;;;;19.92;12.70;;;;;;;29.84;47.62;100958.63;4929119;29;20087;-81
2022/07/25 02:33:56;;;;;;;18.98;11.45;;;;;;;30.17;47.36;101006.03;4943817;29;20059;-80
2022/07/25 02:36:23;;;;;;;13.77;11.20;;;;;;;30.18;47.19;101010.44;4928373;29;20111;-80
2022/07/25 02:38:50;;;;;;;13.18;9.63;;;;;;;29.90;47.23;100946.63;4943635;29;20110;-80
2022/07/25 02:41:17;;;;;;;14.13;11.40;;;;;;;30.23;46.98;100986.69;4943576;29;20059;-80
2022/07/25 02:43:43;;;;;;;15.65;11.88;;;;;;;30.09;47.04;100981.88;4943310;29;20603;-80
2022/07/25 02:46:10;;;;;;;12.43;11.18;;;;;;;30.22;46.78;100997.88;4927945;29;20055;-81
2022/07/25 02:48:37;;;;;;;12.95;11.73;;;;;;;29.98;46.45;100970.81;4929271;29;20056;-80
2022/07/25 02:51:04;;;;;;;19.08;12.02;;;;;;;29.84;45.74;100934.00;4943718;29;20052;-80
2022/07/25 02:53:30;;;;;;;13.43;12.02;;;;;;;29.90;46.43;100956.75;4939960;29;20055;-81
2022/07/25 02:56:17;;;;;;;12.10;10.90;;;;;;;30.12;46.78;101003.25;4941529;29;20058;-81
2022/07/25 02:58:46;;;;;;;12.38;10.82;;;;;;;29.71;46.79;100940.69;4943416;29;20075;-80
2022/07/25 03:01:14;;;;;;;20.08;11.82;;;;;;;30.09;47.22;101003.78;4943669;29;20055;-79
2022/07/25 03:03:40;;;;;;;17.52;11.27;;;;;;;29.83;46.99;100967.88;4943272;29;20063;-80
2022/07/25 03:06:07;;;;;;;13.75;12.13;;;;;;;30.00;46.98;100997.91;4927704;29;20154;-80
2022/07/25 03:08:35;;;;;;;13.07;10.90;;;;;;;29.65;47.04;100944.41;4944016;29;20068;-79
2022/07/25 03:11:02;;;;;;;13.57;12.20;;;;;;;29.98;46.77;101009.13;4928450;29;20060;-80
2022/07/25 03:13:29;;;;;;;13.93;12.50;;;;;;;29.91;46.88;100992.09;4944612;28;20415;-80
2022/07/25 03:15:55;;;;;;;13.88;10.88;;;;;;;29.90;47.01;101001.38;4946894;29;20059;-79
2022/07/25 03:18:22;;;;;;;25.20;12.35;;;;;;;29.66;46.88;100973.44;4946678;29;20052;-80
2022/07/25 03:20:49;;;;;;;16.63;11.23;;;;;;;29.93;47.19;101005.50;4930702;29;20058;-81
2022/07/25 03:23:15;;;;;;;13.18;11.73;;;;;;;29.93;47.46;101010.97;4931886;29;20052;-80
2022/07/25 03:25:42;;;;;;;14.77;13.00;;;;;;;29.76;48.27;100990.00;4930879;29;20102;-80
2022/07/25 03:28:09;;;;;;;12.02;10.25;;;;;;;29.81;48.75;101011.13;4930910;29;20142;-80
2022/07/25 03:30:35;;;;;;;12.93;11.68;;;;;;;29.59;49.16;100990.03;4946548;29;20056;-80
2022/07/25 03:33:02;;;;;;;12.65;11.27;;;;;;;29.79;49.34;101016.03;4930869;29;20130;-80
2022/07/25 03:35:29;;;;;;;16.60;10.80;;;;;;;29.85;49.63;101014.16;4930983;29;20059;-79
2022/07/25 03:37:56;;;;;;;17.63;13.63;;;;;;;29.56;49.70;100979.56;4933851;29;20126;-79
2022/07/25 03:40:22;;;;;;;15.43;11.35;;;;;;;29.72;49.98;101015.38;4933240;29;20535;-79
2022/07/25 03:42:49;;;;;;;21.15;12.50;;;;;;;29.17;50.42;100954.97;4930965;29;20051;-80
2022/07/25 03:45:16;;;;;;;16.42;12.60;;;;;;;29.50;50.47;101018.91;4930831;29;20063;-80
2022/07/25 03:47:43;;;;;;;21.48;13.02;;;;;;;29.49;50.98;101022.72;4946200;29;20052;-79
2022/07/25 03:50:10;;;;;;;19.17;13.38;;;;;;;29.42;50.84;101010.28;4946292;29;20404;-81
2022/07/25 03:52:37;;;;;;;15.88;12.70;;;;;;;29.45;50.83;101020.75;4929983;29;20075;-80
2022/07/25 03:55:09;;;;;;;14.30;11.10;;;;;;;29.50;50.94;101027.09;4926841;29;20048;-80
2022/07/25 03:57:36;;;;;;;15.30;12.52;;;;;;;29.47;50.74;101024.88;4911162;29;20071;-80
2022/07/25 04:00:06;;;;;;;17.42;11.65;;;;;;;29.52;50.55;101021.38;4912400;29;20111;-80
2022/07/25 04:02:33;;;;;;;19.55;13.93;;;;;;;29.52;50.75;101026.84;4912433;29;20107;-81
2022/07/25 04:05:00;;;;;;;15.68;12.20;;;;;;;28.80;50.48;100910.16;4911292;29;20056;-80
2022/07/25 04:07:27;;;;;;;19.08;12.93;;;;;;;29.49;50.79;101017.25;4926804;29;20067;-81
2022/07/25 04:09:53;;;;;;;18.23;14.10;;;;;;;29.51;50.34;101026.00;4912005;29;20505;-81
2022/07/25 04:12:20;;;;;;;12.73;11.20;;;;;;;29.51;50.95;101026.00;4926449;29;20527;-80
2022/07/25 04:14:47;;;;;;;14.85;13.02;;;;;;;29.36;50.86;101012.94;4926810;29;20060;-80
2022/07/25 04:17:13;;;;;;;13.25;11.30;;;;;;;29.31;51.13;101014.78;4926544;29;20052;-80
2022/07/25 04:19:40;;;;;;;12.38;11.05;;;;;;;29.46;51.02;101028.69;4910910;29;20519;-79
2022/07/25 04:22:07;;;;;;;14.32;12.90;;;;;;;29.22;50.73;100991.69;4926809;29;20485;-80
2022/07/25 04:24:34;;;;;;;19.73;13.25;;;;;;;29.45;51.04;101027.03;4925887;29;20059;-81
2022/07/25 04:27:00;;;;;;;16.40;11.75;;;;;;;29.39;50.62;101014.34;4926323;29;20511;-80
2022/07/25 04:29:28;;;;;;;14.40;12.02;;;;;;;29.12;50.11;100952.19;4936116;29;20044;-80
2022/07/25 04:31:55;;;;;;;15.52;10.60;;;;;;;29.55;49.37;101016.22;4931169;29;20060;-80
2022/07/25 04:34:21;;;;;;;14.18;10.82;;;;;;;28.88;49.33;100906.97;4929409;29;20056;-80
2022/07/25 04:36:48;;;;;;;13.13;10.68;;;;;;;29.62;49.42;101032.47;4945260;29;20052;-80
2022/07/25 04:39:15;;;;;;;17.98;12.82;;;;;;;29.65;48.55;101026.47;4945317;29;20047;-80
2022/07/25 04:41:42;;;;;;;14.98;11.77;;;;;;;29.72;48.58;101037.28;4945264;29;20464;-80
2022/07/25 04:44:08;;;;;;;24.98;11.27;;;;;;;29.53;48.54;100996.50;4929395;29;20208;-80
2022/07/25 04:46:35;;;;;;;16.33;11.98;;;;;;;29.63;48.39;101022.34;4929176;29;20138;-82
2022/07/25 04:49:02;;;;;;;13.20;11.55;;;;;;;29.66;48.33;101017.22;4929858;29;20087;-81
2022/07/25 04:51:28;;;;;;;15.40;11.38;;;;;;;29.59;48.25;101002.88;4930692;29;20405;-81
2022/07/25 04:53:55;;;;;;;18.27;11.88;;;;;;;29.25;48.17;100951.03;4929426;29;20052;-80
2022/07/25 04:56:22;;;;;;;11.95;10.70;;;;;;;29.55;47.93;100999.81;4944913;29;20059;-80
2022/07/25 04:58:48;;;;;;;19.02;12.60;;;;;;;29.45;47.84;100975.06;4945508;29;20047;-81
2022/07/25 05:01:15;;;;;;;14.32;11.93;;;;;;;29.68;47.54;101006.03;4927415;29;20059;-80
2022/07/25 05:03:42;;;;;;;16.05;13.45;;;;;;;29.81;47.24;101019.34;4928600;29;20699;-80
2022/07/25 05:06:16;;;;;;;16.20;13.35;;;;;;;29.75;47.08;101014.88;4929078;29;20435;-80
2022/07/25 05:08:42;;;;;;;16.67;12.45;;;;;;;29.91;47.35;101035.06;4929586;29;20068;-80
2022/07/25 05:11:09;;;;;;;21.60;13.32;;;;;;;29.89;47.42;101038.03;4927991;29;20047;-81
2022/07/25 05:13:36;;;;;;;17.92;11.13;;;;;;;30.00;47.68;101037.09;4943685;29;20086;-80
2022/07/25 05:16:02;;;;;;;16.40;12.40;;;;;;;29.88;47.33;101003.56;4943962;29;20083;-79
2022/07/25 05:18:29;;;;;;;12.93;11.63;;;;;;;30.10;47.08;101039.13;4943561;29;20047;-79
2022/07/25 05:20:57;;;;;;;14.82;11.93;;;;;;;30.11;46.80;101040.75;4943812;29;20082;-81
2022/07/25 05:23:24;;;;;;;16.90;11.85;;;;;;;29.89;47.00;101005.19;4914476;29;20103;-80
2022/07/25 05:25:51;;;;;;;13.75;11.48;;;;;;;30.21;46.68;101042.78;4927984;29;20059;-81
2022/07/25 05:28:17;;;;;;;14.50;12.23;;;;;;;30.29;46.89;101047.81;4929080;29;20056;-79
2022/07/25 05:30:44;;;;;;;14.50;11.88;;;;;;;30.33;46.48;101048.97;4934144;29;20127;-80
2022/07/25 05:33:11;;;;;;;16.77;13.13;;;;;;;30.00;46.47;100995.19;4928505;29;20114;-81
2022/07/25 05:35:38;;;;;;;14.40;11.15;;;;;;;30.24;45.46;101006.66;4928923;29;20127;-79
2022/07/25 05:38:04;;;;;;;14.32;11.63;;;;;;;30.45;46.79;101041.44;4933095;29;20058;-80
2022/07/25 05:40:31;;;;;;;14.82;11.75;;;;;;;30.49;46.72;101049.97;4928302;29;20333;-79
2022/07/25 05:42:58;;;;;;;16.65;13.18;;;;;;;29.95;45.65;100940.38;4927696;29;20055;-79
2022/07/25 05:45:29;;;;;;;13.27;11.48;;;;;;;30.54;45.57;101047.28;4928605;29;20059;-79
2022/07/25 05:47:56;;;;;;;18.15;12.57;;;;;;;30.53;46.17;101047.53;4928063;29;20067;-78
2022/07/25 05:50:23;;;;;;;15.98;11.80;;;;;;;30.15;45.36;100961.69;4930370;29;20051;-79
2022/07/25 05:52:50;;;;;;;16.13;13.02;;;;;;;30.51;45.05;101006.69;4955683;29;20059;-81
2022/07/25 05:55:17;;;;;;;13.65;11.98;;;;;;;30.79;45.47;101046.69;4945447;29;20055;-80
2022/07/25 05:57:44;;;;;;;15.85;12.32;;;;;;;30.50;44.99;100998.75;4930289;29;20043;-80
2022/07/25 06:00:11;;;;;;;15.43;12.07;;;;;;;30.91;44.44;101051.22;4945599;29;20051;-80
2022/07/25 06:02:38;;;;;;;15.63;12.80;;;;;;;30.84;45.01;101045.94;4926513;29;20056;-80
2022/07/25 06:05:05;;;;;;;14.00;12.40;;;;;;;30.28;44.98;100953.09;4927523;29;20047;-80
2022/07/25 06:07:31;;;;;;;16.25;12.32;;;;;;;30.87;45.07;101042.66;4927154;29;20142;-81
2022/07/25 06:09:58;;;;;;;18.63;13.05;;;;;;;30.55;44.69;100971.41;4943080;29;20081;-81
2022/07/25 06:12:25;;;;;;;24.33;14.23;;;;;;;30.99;44.65;101045.22;4943092;29;20055;-80
2022/07/25 06:14:52;;;;;;;23.00;12.95;;;;;;;31.02;44.74;101039.22;4927678;29;20056;-79
2022/07/25 06:17:19;;;;;;;13.73;12.45;;;;;;;30.97;44.87;101047.41;4933290;29;20056;-79
2022/07/25 06:19:46;;;;;;;19.80;14.32;;;;;;;30.79;44.69;101002.00;4908009;29;20063;-82
2022/07/25 06:22:13;;;;;;;16.63;14.65;;;;;;;30.98;44.45;101019.75;4908541;29;20067;-77
2022/07/25 06:24:40;;;;;;;15.05;13.32;;;;;;;31.01;44.74;101018.38;4909253;29;20528;-78
2022/07/25 06:27:07;;;;;;;14.32;12.77;;;;;;;31.10;44.92;101025.03;4923618;29;20719;-78
2022/07/25 06:29:34;;;;;;;19.27;12.90;;;;;;;31.20;44.76;101038.00;4918887;29;20664;-80
2022/07/25 06:32:01;;;;;;;19.38;14.18;;;;;;;31.14;45.05;101031.63;4928264;29;20690;-80
2022/07/25 06:34:32;;;;;;;16.75;13.15;;;;;;;31.18;45.13;101042.91;4926633;29;20067;-80
2022/07/25 06:36:58;;;;;;;15.13;13.52;;;;;;;31.14;44.66;101026.13;4927392;29;20075;-82
2022/07/25 06:39:26;;;;;;;24.55;15.60;;;;;;;31.32;44.37;101037.81;4926741;29;20106;-81
2022/07/25 06:41:53;;;;;;;17.58;13.20;;;;;;;31.11;44.51;101007.47;4925091;29;20052;-82
2022/07/25 06:44:20;;;;;;;17.38;13.98;;;;;;;31.41;44.51;101038.97;4923838;29;20059;-80
2022/07/25 06:46:47;;;;;;;17.27;13.38;;;;;;;31.47;43.93;101043.41;4909151;29;20044;-82
2022/07/25 06:49:15;;;;;;;17.65;14.38;;;;;;;31.51;43.69;101030.81;4926747;29;20330;-81
2022/07/25 06:51:42;;;;;;;18.63;13.77;;;;;;;31.38;44.57;101032.06;4928111;29;20119;-81
2022/07/25 06:54:09;;;;;;;26.73;15.43;;;;;;;31.25;44.44;101027.88;4939533;29;20047;-81
2022/07/25 06:56:36;;;;;;;17.05;14.27;;;;;;;31.43;44.62;101040.34;4930186;29;20048;-81
2022/07/25 06:59:02;;;;;;;19.40;14.82;;;;;;;31.56;43.96;101039.06;4946206;29;20051;-81
2022/07/25 07:01:29;;;;;;;18.40;14.70;;;;;;;31.52;44.48;101032.47;4929249;29;20547;-81
2022/07/25 07:03:56;;;;;;;17.75;15.65;;;;;;;31.34;44.63;101019.13;4945771;29;20040;-81
2022/07/25 07:06:22;;;;;;;21.55;14.80;;;;;;;31.25;44.52;101007.84;4946376;29;20097;-81
2022/07/25 07:08:50;;;;;;;20.15;13.63;;;;;;;30.60;44.19;100889.25;4945694;29;20422;-82
2022/07/25 07:11:17;;;;;;;14.88;12.82;;;;;;;31.63;43.99;101036.06;4945749;29;20126;-81
2022/07/25 07:13:43;;;;;;;19.83;14.07;;;;;;;31.34;44.60;100981.59;4929973;29;20122;-82
2022/07/25 07:16:10;;;;;;;16.15;13.15;;;;;;;31.49;44.42;101006.38;4930312;29;20101;-81
2022/07/25 07:18:37;;;;;;;17.30;13.90;;;;;;;31.54;44.34;100996.53;4931326;29;20067;-79
2022/07/25 07:21:05;;;;;;;17.10;15.43;;;;;;;31.86;43.99;101029.31;4931629;29;20460;-81
2022/07/25 07:23:33;;;;;;;15.23;13.68;;;;;;;31.66;44.11;101010.84;4946745;29;20516;-79
2022/07/25 07:26:02;;;;;;;14.93;13.38;;;;;;;31.93;43.72;101025.22;4947901;29;20072;-80
2022/07/25 07:28:29;;;;;;;15.43;13.77;;;;;;;31.85;44.37;101013.97;4947616;29;20637;-78
2022/07/25 07:30:55;;;;;;;16.00;14.40;;;;;;;31.86;44.07;101015.59;4931897;29;20056;-79
2022/07/25 07:33:42;;;;;;;17.33;14.25;;;;;;;31.57;43.65;100952.09;4930612;29;20151;-79
2022/07/25 07:36:09;;;;;;;17.15;14.30;;;;;;;31.96;43.88;101004.69;4930598;29;20496;-77
2022/07/25 07:38:36;;;;;;;27.65;17.13;;;;;;;32.02;44.03;101014.59;4923055;29;20315;-79
2022/07/25 07:41:02;;;;;;;19.67;15.50;;;;;;;31.86;44.38;101002.69;4937616;29;20104;-80
2022/07/25 07:43:30;;;;;;;23.40;16.38;;;;;;;31.87;44.33;100990.63;4909329;29;20080;-80
2022/07/25 07:45:59;;;;;;;20.33;16.88;;;;;;;31.44;44.32;100913.09;4910945;29;20508;-81
2022/07/25 07:48:30;;;;;;;17.58;13.70;;;;;;;32.06;44.34;100988.22;4909452;29;20598;-81
2022/07/25 07:50:59;;;;;;;16.38;14.25;;;;;;;32.10;43.97;100978.34;4910965;29;20308;-81
2022/07/25 07:56:13;;;;;;;16.95;14.85;;;;;;;31.34;43.91;100851.81;4930136;29;20551;-81
2022/07/25 07:58:40;;;;;;;20.35;15.50;;;;;;;32.15;43.86;100964.63;4928188;29;20044;-81
2022/07/25 08:01:06;;;;;;;18.17;15.25;;;;;;;32.54;42.97;101010.03;4942879;28;20293;-80
2022/07/25 08:03:33;;;;;;;18.98;16.98;;;;;;;32.49;43.45;101032.84;4943854;29;20059;-81
2022/07/25 08:06:00;;;;;;;17.98;15.73;;;;;;;32.28;43.50;100990.75;4935476;29;20101;-80
2022/07/25 08:08:26;;;;;;;16.55;14.82;;;;;;;32.49;43.64;101024.59;4926594;29;20389;-79
2022/07/25 08:10:57;;;;;;;17.77;15.88;;;;;;;32.43;43.33;100991.84;4926478;29;20048;-79
2022/07/25 08:13:28;;;;;;;21.55;16.13;;;;;;;32.63;43.28;101015.84;4927082;29;20059;-79
2022/07/25 08:15:57;;;;;;;;;;;;;;;32.51;44.04;101021.59;4911603;29;20220;-79
2022/07/25 08:18:25;;;;;;;19.83;14.25;;;;;;;32.21;43.46;100950.91;4912246;29;19923;-79
2022/07/25 08:20:52;;;;;;;17.75;14.77;;;;;;;32.75;43.05;101010.88;4911663;29;20459;-79
2022/07/25 08:23:19;;;;;;;20.88;16.45;;;;;;;32.67;42.86;100986.69;4912033;29;20055;-78
2022/07/25 08:25:46;;;;;;;19.35;14.90;;;;;;;32.74;43.62;101000.97;4910901;29;20052;-80
2022/07/25 08:28:13;;;;;;;18.15;14.90;;;;;;;32.81;43.17;101003.44;4926253;29;20539;-80
2022/07/25 08:30:40;;;;;;;27.27;16.63;;;;;;;31.86;43.31;100842.66;4934326;29;20063;-80
2022/07/25 08:33:11;;;;;;;19.85;16.33;;;;;;;32.78;43.18;100971.84;4929803;29;20080;-80
2022/07/25 08:35:39;;;;;;;19.38;14.15;;;;;;;33.02;42.57;100999.59;4945389;29;20060;-81
2022/07/25 08:38:06;;;;;;;16.50;14.13;;;;;;;33.00;42.43;100988.84;4929562;29;20070;-81
2022/07/25 08:40:34;;;;;;;18.83;12.93;;;;;;;33.17;42.37;101005.09;4929197;29;20056;-81
2022/07/25 08:43:00;;;;;;;17.00;13.93;;;;;;;32.75;41.98;100898.19;4929178;29;20063;-82
2022/07/25 08:45:27;;;;;;;18.52;14.55;;;;;;;33.22;41.55;100965.75;4929105;29;20050;-81
2022/07/25 08:47:55;;;;;;;18.73;13.75;;;;;;;33.49;41.64;100992.06;4928991;29;20062;-81
2022/07/25 08:50:25;;;;;;;18.52;13.13;;;;;;;32.68;41.18;100856.41;4929033;29;20078;-82
2022/07/25 08:52:53;;;;;;;17.08;13.13;;;;;;;33.00;41.02;100909.09;4926554;29;20059;-82
2022/07/25 08:55:42;;;;;;;15.73;14.07;;;;;;;33.35;41.04;100948.66;4923150;29;20091;-80
2022/07/25 08:58:10;;;;;;;18.20;12.55;;;;;;;33.34;41.16;100952.50;4918555;29;20059;-82
2022/07/25 09:00:37;;;;;;;15.95;13.43;;;;;;;33.30;41.44;100942.31;4929910;29;20074;-81
2022/07/25 09:03:07;;;;;;;20.10;14.80;;;;;;;33.70;41.25;100990.09;4943589;29;20599;-83
2022/07/25 09:05:35;;;;;;;15.27;13.68;;;;;;;33.70;40.78;100948.81;4928465;29;20419;-81
2022/07/25 09:08:07;;;;;;;22.23;14.90;;;;;;;33.66;40.92;100943.03;4928689;29;20060;-80
2022/07/25 09:10:34;;;;;;;16.42;13.73;;;;;;;33.83;40.07;100949.00;4928177;29;20054;-80
2022/07/25 09:13:09;;;;;;;26.48;15.38;;;;;;;34.09;40.27;100983.88;4933375;29;20079;-82
2022/07/25 09:15:39;;;;;;;18.23;13.38;;;;;;;33.95;40.30;100956.91;4930338;29;20123;-82
2022/07/25 09:18:14;;;;;;;17.38;14.13;;;;;;;34.10;39.69;100941.44;4928880;29;20137;-82
2022/07/25 09:20:46;;;;;;;16.70;14.07;;;;;;;33.60;40.19;100856.09;4944155;29;20167;-82
2022/07/25 09:23:26;;;;;;;18.95;13.90;;;;;;;34.31;39.91;100958.66;4928243;29;20055;-79
2022/07/25 09:26:09;;;;;;;18.75;13.48;;;;;;;34.31;40.11;100959.47;4928713;29;20062;-80
2022/07/25 09:28:44;;;;;;;15.95;13.73;;;;;;;34.55;39.63;100967.81;4927575;29;20197;-78
2022/07/25 09:31:13;;;;;;;20.08;14.75;;;;;;;34.61;40.31;100955.66;4943887;29;20075;-81
2022/07/25 09:33:55;;;;;;;18.40;13.13;;;;;;;34.71;39.00;100970.47;4930612;29;20052;-81
2022/07/25 09:36:22;;;;;;;17.80;13.38;;;;;;;34.71;38.95;100968.53;4929687;29;20048;-81
2022/07/25 09:38:59;;;;;;;19.65;12.43;;;;;;;34.82;38.87;100964.56;4927508;29;20043;-81
2022/07/25 09:41:33;;;;;;;17.05;13.07;;;;;;;34.60;38.43;100926.44;4927774;29;20432;-80
2022/07/25 09:44:00;;;;;;;13.73;11.88;;;;;;;34.87;38.60;100949.91;4943085;29;20098;-81
2022/07/25 09:46:31;;;;;;;22.42;13.38;;;;;;;34.87;38.92;100944.38;4928956;29;20058;-80
2022/07/25 09:48:59;;;;;;;14.98;13.48;;;;;;;35.07;38.95;100955.19;4943257;29;20059;-81
2022/07/25 09:51:27;;;;;;;21.60;12.70;;;;;;;35.19;38.56;100948.50;4927366;29;20067;-79
2022/07/25 09:53:54;;;;;;;14.70;12.90;;;;;;;35.35;38.44;100949.16;4932178;29;20054;-81
2022/07/25 09:56:21;;;;;;;18.85;12.90;;;;;;;35.42;38.02;100933.88;4908917;29;20051;-80
2022/07/25 09:58:48;;;;;;;18.95;12.88;;;;;;;35.42;37.06;100928.34;4909263;29;20091;-80
2022/07/25 10:01:21;;;;;;;18.73;13.73;;;;;;;35.58;36.64;100944.69;4924572;29;20559;-81
2022/07/25 10:04:13;;;;;;;18.90;12.60;;;;;;;35.52;37.11;100911.66;4906275;29;20051;-80
2022/07/25 10:06:51;;;;;;;15.68;11.98;;;;;;;35.92;36.48;100939.81;4922712;29;20512;-81
2022/07/25 10:09:18;;;;;;;15.63;11.95;;;;;;;36.00;35.40;100932.81;4924529;29;20123;-81
2022/07/25 10:12:05;;;;;;;14.85;10.23;;;;;;;35.93;33.76;100913.84;4908918;29;20087;-80
2022/07/25 10:14:33;;;;;;;17.38;12.70;;;;;;;36.04;34.54;100900.69;4924092;29;20071;-80
2022/07/25 10:17:00;;;;;;;15.07;11.43;;;;;;;36.42;33.68;100927.50;4924412;29;20055;-79
2022/07/25 10:19:47;;;;;;;15.55;13.20;;;;;;;36.67;33.31;100918.75;4924132;29;20059;-80
2022/07/25 10:22:21;;;;;;;16.13;13.75;;;;;;;36.75;34.70;100904.25;4909832;29;20112;-80
2022/07/25 10:25:18;;;;;;;12.85;11.70;;;;;;;36.95;33.37;100918.81;4925357;29;20055;-79
2022/07/25 10:27:51;;;;;;;14.73;12.80;;;;;;;36.93;33.48;100918.28;4914065;29;20452;-80
2022/07/25 10:30:23;;;;;;;13.77;12.10;;;;;;;36.98;33.09;100918.19;4928884;29;20071;-79
2022/07/25 10:33:01;;;;;;;17.85;11.00;;;;;;;36.97;32.40;100888.88;4914464;29;20104;-79
2022/07/25 10:35:28;;;;;;;12.10;10.90;;;;;;;37.11;32.21;100895.25;4918993;29;20052;-80
2022/07/25 10:37:57;;;;;;;12.80;10.57;;;;;;;37.33;31.96;100888.16;4923572;29;20081;-82
2022/07/25 10:40:26;;;;;;;17.15;11.85;;;;;;;37.64;30.96;100902.19;4932470;29;20060;-82
2022/07/25 10:43:20;;;;;;;14.10;12.67;;;;;;;37.79;30.99;100903.78;4946787;29;20059;-81
2022/07/25 10:45:49;;;;;;;12.90;11.70;;;;;;;37.89;31.35;100902.72;4909413;29;20060;-80
2022/07/25 10:48:31;;;;;;;11.85;10.48;;;;;;;38.01;30.96;100895.53;4920260;29;20060;-78
2022/07/25 10:51:20;;;;;;;12.45;11.20;;;;;;;38.20;29.97;100888.97;4914237;29;20068;-79
2022/07/25 10:53:50;;;;;;;20.13;10.45;;;;;;;38.11;29.70;100882.53;4920544;29;20063;-80
2022/07/25 10:56:21;;;;;;;12.32;11.07;;;;;;;38.19;29.60;100879.03;4934334;29;20067;-81
2022/07/25 10:58:48;;;;;;;14.65;10.82;;;;;;;38.38;29.91;100881.56;4932106;29;20303;-81
2022/07/25 11:01:25;;;;;;;19.85;10.95;;;;;;;38.18;28.24;100838.56;4931241;29;20530;-80
2022/07/25 11:03:55;;;;;;;15.15;10.60;;;;;;;37.93;28.59;100804.00;4947737;29;20436;-80
2022/07/25 11:06:39;;;;;;;17.25;11.38;;;;;;;38.40;28.52;100862.66;4933142;29;20083;-80
2022/07/25 11:09:14;;;;;;;11.80;10.57;;;;;;;38.79;27.68;100864.69;4930878;29;20578;-80
2022/07/25 11:11:48;;;;;;;13.75;11.15;;;;;;;38.90;28.48;100852.16;4930557;29;20447;-80
2022/07/25 11:14:21;;;;;;;12.73;10.23;;;;;;;39.08;28.43;100864.16;4946636;29;20051;-80
2022/07/25 11:16:50;;;;;;;14.07;12.60;;;;;;;39.21;28.03;100851.28;4930634;29;20059;-80
2022/07/25 11:19:21;;;;;;;13.35;10.35;;;;;;;38.86;27.69;100770.69;4932367;29;20047;-81